Heredia, Costa Rica
Current Conditions -  °F | °C
As of 1:00 PM on Friday 28 Nov 2014 (Local Time) from MROC Reporting Station
Few Clouds Few Clouds  
Wind Chill: 79°   Ceiling: Unl
Heat Index: 80°   Visibility: 6mi
Dew Point: 61°   Wind: 21mph
Humidity: 54%   Direction: 70°ENE
Pressure: 29.9"   Gusts: 36mph
Location:  10°N, 84.12°W
Report Text: MROC 281900Z 07018G31KT 9999 FEW030 26/16 A2990 NOSIG
Loading
Personal Weather Stations






























Interactive Weather Map New forecast layout! Learn more

10-Day Weather Forecast

Advertisements
Track Severe Weather on mobile